Time;durP1;ratioP1;P1;durP2;ratioP2;P2;SDS_P1;SDS_P2;PMS_P1;PMS_P2;Temp;Humidity;BMP_temperature;BMP_pressure;BME280_temperature;BME280_humidity;BME280_pressure;Samples;Min_cycle;Max_cycle;Signal;HPM_P1;HPM_P2
2022/11/24 00:01:51;;;;;;;;;;;;;;;;;;4941409;29;19922;-80
2022/11/24 00:04:16;;;;;;;;;;;;;;;;;;4936501;29;20496;-78
2022/11/24 00:06:41;;;;;;;;;;;;;;;;;;4935722;29;19915;-76
2022/11/24 00:09:07;;;;;;;;;;;;;;;;;;4937471;29;19950;-77
2022/11/24 00:11:34;;;;;;;;;;;;;;;;;;4926854;29;19919;-77
2022/11/24 00:14:00;;;;;;;;;;;;;;;;;;4939993;29;20017;-76
2022/11/24 00:16:25;;;;;;;;;;;;;;;;;;4935616;29;19919;-77
2022/11/24 00:18:50;;;;;;;;;;;;;;;;;;4942791;29;19922;-82
2022/11/24 00:21:16;;;;;;;;;;;;;;;;;;4919411;29;19915;-79
2022/11/24 00:23:44;;;;;;;;;;;;;;;;;;4935810;29;19965;-79
2022/11/24 00:26:11;;;;;;;;;;;;;;;;;;4934394;29;20403;-79
2022/11/24 00:28:37;;;;;;;;;;;;;;;;;;4935917;29;20255;-79
2022/11/24 00:31:02;;;;;;;;;;;;;;;;;;4936581;29;19914;-80
2022/11/24 00:33:27;;;;;;;;;;;;;;;;;;4935854;29;19915;-80
2022/11/24 00:35:53;;;;;;;;;;;;;;;;;;4920680;29;19915;-79
2022/11/24 00:38:18;;;;;;;;;;;;;;;;;;4936447;29;19989;-79
2022/11/24 00:40:43;;;;;;;;;;;;;;;;;;4936325;29;19942;-79
2022/11/24 00:43:09;;;;;;;;;;;;;;;;;;4935503;29;19947;-79
2022/11/24 00:45:34;;;;;;;;;;;;;;;;;;4937678;29;19926;-78
2022/11/24 00:47:59;;;;;;;;;;;;;;;;;;4936908;29;19915;-79
2022/11/24 00:50:25;;;;;;;;;;;;;;;;;;4936300;29;19921;-78
2022/11/24 00:52:50;;;;;;;;;;;;;;;;;;4937592;29;19914;-79
2022/11/24 00:55:16;;;;;;;;;;;;;;;;;;4938503;29;19915;-78
2022/11/24 00:57:41;;;;;;;;;;;;;;;;;;4937975;29;20374;-78
2022/11/24 01:00:06;;;;;;;;;;;;;;;;;;4938611;29;19965;-78
2022/11/24 01:02:32;;;;;;;;;;;;;;;;;;4921768;29;19918;-79
2022/11/24 01:04:57;;;;;;;;;;;;;;;;;;4937672;29;20451;-78
2022/11/24 01:07:23;;;;;;;;;;;;;;;;;;4938065;29;20371;-79
2022/11/24 01:09:48;;;;;;;;;;;;;;;;;;4939127;29;19922;-78
2022/11/24 01:12:13;;;;;;;;;;;;;;;;;;4939442;29;19918;-78
2022/11/24 01:14:39;;;;;;;;;;;;;;;;;;4942849;29;19915;-78
2022/11/24 01:17:04;;;;;;;;;;;;;;;;;;4941725;29;19981;-79
2022/11/24 01:19:29;;;;;;;;;;;;;;;;;;4946573;29;19910;-78
2022/11/24 01:21:55;;;;;;;;;;;;;;;;;;4950652;29;19915;-78
2022/11/24 01:24:20;;;;;;;;;;;;;;;;;;4943099;29;20383;-79
2022/11/24 01:26:46;;;;;;;;;;;;;;;;;;4942251;29;19979;-79
2022/11/24 01:29:11;;;;;;;;;;;;;;;;;;4942076;29;20479;-79
2022/11/24 01:31:36;;;;;;;;;;;;;;;;;;4940210;29;19914;-79
2022/11/24 01:34:02;;;;;;;;;;;;;;;;;;4940505;29;20387;-79
2022/11/24 01:36:27;;;;;;;;;;;;;;;;;;4940438;29;19994;-79
2022/11/24 01:38:52;;;;;;;;;;;;;;;;;;4939646;29;19969;-79
2022/11/24 01:41:18;;;;;;;;;;;;;;;;;;4940722;29;19926;-79
2022/11/24 01:43:43;;;;;;;;;;;;;;;;;;4940714;29;19969;-79
2022/11/24 01:46:09;;;;;;;;;;;;;;;;;;4940623;29;19965;-80
2022/11/24 01:48:34;;;;;;;;;;;;;;;;;;4940380;29;19969;-78
2022/11/24 01:50:59;;;;;;;;;;;;;;;;;;4938670;29;19963;-78
2022/11/24 01:53:25;;;;;;;;;;;;;;;;;;4940418;29;20350;-79
2022/11/24 01:55:50;;;;;;;;;;;;;;;;;;4939895;29;19966;-78
2022/11/24 01:58:15;;;;;;;;;;;;;;;;;;4940089;29;20298;-78
2022/11/24 02:00:41;;;;;;;;;;;;;;;;;;4940645;29;19915;-79
2022/11/24 02:05:51;;;;;;;;;;;;;;;;;;5956992;23;19921;-81
2022/11/24 02:13:43;;;;;;;;;;;;;;;;;;6021226;23;20713;-82
2022/11/24 02:16:11;;;;;;;;;;;;;;;;;;4965472;28;19907;-83
2022/11/24 02:18:41;;;;;;;;;;;;;;;;;;4966126;28;19914;-84
2022/11/24 02:21:12;;;;;;;;;;;;;;;;;;4966195;28;19918;-84
2022/11/24 02:23:53;;;;;;;;;;;;;;;;;;4950704;28;19903;-84
2022/11/24 02:26:21;;;;;;;;;;;;;;;;;;4981299;28;19951;-84
2022/11/24 02:28:47;;;;;;;;;;;;;;;;;;4997337;28;19929;-83
2022/11/24 02:31:18;;;;;;;;;;;;;;;;;;4965814;28;19965;-83
2022/11/24 02:33:46;;;;;;;;;;;;;;;;;;4981368;28;19907;-81
2022/11/24 02:36:12;;;;;;;;;;;;;;;;;;4979708;28;19918;-83
2022/11/24 02:38:40;;;;;;;;;;;;;;;;;;4965006;28;19930;-83
2022/11/24 02:41:10;;;;;;;;;;;;;;;;;;5059350;23;19927;-85
2022/11/24 02:43:40;;;;;;;;;;;;;;;;;;4964926;28;19985;-83
2022/11/24 02:46:07;;;;;;;;;;;;;;;;;;4980600;28;19918;-83
2022/11/24 02:48:32;;;;;;;;;;;;;;;;;;4971828;28;20370;-83
2022/11/24 02:50:58;;;;;;;;;;;;;;;;;;4954286;29;19938;-82
2022/11/24 02:53:23;;;;;;;;;;;;;;;;;;4970159;29;19915;-82
2022/11/24 02:55:49;;;;;;;;;;;;;;;;;;4970256;29;19914;-82
2022/11/24 02:58:14;;;;;;;;;;;;;;;;;;4968490;29;19925;-82
2022/11/24 03:00:40;;;;;;;;;;;;;;;;;;4952843;29;19915;-82
2022/11/24 03:03:06;;;;;;;;;;;;;;;;;;4969958;29;20005;-82
2022/11/24 03:05:31;;;;;;;;;;;;;;;;;;4943336;29;19905;-83
2022/11/24 03:08:06;;;;;;;;;;;;;;;;;;4948940;29;19915;-83
2022/11/24 03:10:32;;;;;;;;;;;;;;;;;;4976347;29;19914;-83
2022/11/24 03:13:00;;;;;;;;;;;;;;;;;;4956799;29;19921;-83
2022/11/24 03:15:26;;;;;;;;;;;;;;;;;;4971477;29;19970;-82
2022/11/24 03:17:51;;;;;;;;;;;;;;;;;;4971422;28;20011;-82
2022/11/24 03:20:17;;;;;;;;;;;;;;;;;;4967250;29;19914;-83
2022/11/24 03:25:25;;;;;;;;;;;;;;;;;;5823790;23;19946;-82
2022/11/24 03:27:52;;;;;;;;;;;;;;;;;;4975850;29;19926;-82
2022/11/24 03:30:18;;;;;;;;;;;;;;;;;;4970690;29;19915;-82
2022/11/24 03:32:43;;;;;;;;;;;;;;;;;;4968918;29;19921;-82
2022/11/24 03:35:09;;;;;;;;;;;;;;;;;;4969098;28;19914;-82
2022/11/24 03:37:37;;;;;;;;;;;;;;;;;;4936474;29;20378;-82
2022/11/24 03:40:02;;;;;;;;;;;;;;;;;;4973229;28;19946;-83
2022/11/24 03:42:37;;;;;;;;;;;;;;;;;;4962503;28;19906;-83
2022/11/24 03:45:08;;;;;;;;;;;;;;;;;;4979909;28;19918;-83
2022/11/24 03:47:33;;;;;;;;;;;;;;;;;;5160077;23;20279;-82
2022/11/24 03:50:02;;;;;;;;;;;;;;;;;;4947876;28;19902;-84
2022/11/24 03:52:28;;;;;;;;;;;;;;;;;;4980102;28;19914;-84
2022/11/24 03:54:55;;;;;;;;;;;;;;;;;;4960674;28;19919;-83
2022/11/24 03:57:30;;;;;;;;;;;;;;;;;;4957009;29;19919;-82
2022/11/24 03:59:56;;;;;;;;;;;;;;;;;;4958087;29;19958;-83
2022/11/24 04:02:24;;;;;;;;;;;;;;;;;;4957888;29;19915;-82
2022/11/24 04:04:51;;;;;;;;;;;;;;;;;;4957353;29;19899;-82
2022/11/24 04:07:19;;;;;;;;;;;;;;;;;;4954203;29;19915;-83
2022/11/24 04:09:45;;;;;;;;;;;;;;;;;;4956011;29;19915;-82
2022/11/24 04:15:01;;;;;;;;;;;;;;;;;;4971848;29;19911;-82
2022/11/24 04:17:26;;;;;;;;;;;;;;;;;;4955394;29;19923;-83
2022/11/24 04:19:52;;;;;;;;;;;;;;;;;;4955755;29;19922;-83
2022/11/24 04:22:20;;;;;;;;;;;;;;;;;;4940979;29;19914;-83
2022/11/24 04:24:46;;;;;;;;;;;;;;;;;;4957891;29;20321;-83
2022/11/24 04:27:12;;;;;;;;;;;;;;;;;;4956494;29;19915;-82
2022/11/24 04:29:37;;;;;;;;;;;;;;;;;;4969660;29;19915;-82
2022/11/24 04:32:03;;;;;;;;;;;;;;;;;;4936425;29;19915;-83
2022/11/24 04:34:31;;;;;;;;;;;;;;;;;;4953755;29;19921;-82
2022/11/24 04:36:57;;;;;;;;;;;;;;;;;;4953075;29;19946;-82
2022/11/24 04:39:22;;;;;;;;;;;;;;;;;;4953212;29;19946;-83
2022/11/24 04:41:48;;;;;;;;;;;;;;;;;;4952797;29;19914;-81
2022/11/24 04:44:13;;;;;;;;;;;;;;;;;;4937825;29;19915;-83
2022/11/24 04:46:39;;;;;;;;;;;;;;;;;;4956511;29;19915;-83
2022/11/24 04:49:05;;;;;;;;;;;;;;;;;;4960218;29;19919;-82
2022/11/24 04:51:30;;;;;;;;;;;;;;;;;;4944328;29;19922;-82
2022/11/24 04:53:56;;;;;;;;;;;;;;;;;;4959998;29;19919;-83
2022/11/24 04:56:22;;;;;;;;;;;;;;;;;;4959978;29;19966;-83
2022/11/24 04:58:47;;;;;;;;;;;;;;;;;;4960526;29;19899;-83
2022/11/24 05:01:16;;;;;;;;;;;;;;;;;;4958805;29;19973;-82
2022/11/24 05:03:42;;;;;;;;;;;;;;;;;;4955629;29;19974;-82
2022/11/24 05:06:07;;;;;;;;;;;;;;;;;;4956396;29;19922;-81
2022/11/24 05:08:33;;;;;;;;;;;;;;;;;;4941331;29;19915;-82
2022/11/24 05:10:58;;;;;;;;;;;;;;;;;;4956774;29;19915;-82
2022/11/24 05:13:27;;;;;;;;;;;;;;;;;;4956835;29;19921;-81
2022/11/24 05:15:52;;;;;;;;;;;;;;;;;;4955636;29;20005;-82
2022/11/24 05:18:18;;;;;;;;;;;;;;;;;;4956642;29;19918;-83
2022/11/24 05:20:43;;;;;;;;;;;;;;;;;;4957298;29;19939;-82
2022/11/24 05:23:09;;;;;;;;;;;;;;;;;;4945355;29;19903;-83
2022/11/24 05:25:34;;;;;;;;;;;;;;;;;;4962807;28;19926;-83
2022/11/24 05:28:00;;;;;;;;;;;;;;;;;;4961164;29;19894;-83
2022/11/24 05:30:29;;;;;;;;;;;;;;;;;;4945256;29;19919;-83
2022/11/24 05:32:57;;;;;;;;;;;;;;;;;;4960913;28;19926;-82
2022/11/24 05:35:25;;;;;;;;;;;;;;;;;;4960883;29;19915;-83
2022/11/24 05:37:53;;;;;;;;;;;;;;;;;;4958368;29;19919;-81
2022/11/24 05:40:18;;;;;;;;;;;;;;;;;;4958465;29;20007;-82
2022/11/24 05:42:50;;;;;;;;;;;;;;;;;;4958524;29;19930;-81
2022/11/24 05:45:16;;;;;;;;;;;;;;;;;;4961444;29;19906;-84
2022/11/24 05:47:43;;;;;;;;;;;;;;;;;;4961513;28;19927;-83
2022/11/24 05:50:09;;;;;;;;;;;;;;;;;;4961231;29;19915;-82
2022/11/24 05:52:34;;;;;;;;;;;;;;;;;;4960499;29;19915;-82
2022/11/24 05:55:00;;;;;;;;;;;;;;;;;;4959152;29;19986;-82
2022/11/24 05:57:51;;;;;;;;;;;;;;;;;;4961013;28;19902;-83
2022/11/24 06:00:17;;;;;;;;;;;;;;;;;;4962044;29;19978;-83
2022/11/24 06:02:47;;;;;;;;;;;;;;;;;;4944705;29;19955;-82
2022/11/24 06:05:15;;;;;;;;;;;;;;;;;;4962049;28;19910;-84
2022/11/24 06:07:40;;;;;;;;;;;;;;;;;;4961914;28;19919;-84
2022/11/24 06:10:06;;;;;;;;;;;;;;;;;;4946044;29;19922;-83
2022/11/24 06:12:32;;;;;;;;;;;;;;;;;;4996033;23;19930;-84
2022/11/24 06:15:00;;;;;;;;;;;;;;;;;;4980825;29;19899;-83
2022/11/24 06:17:26;;;;;;;;;;;;;;;;;;4978643;29;19914;-83
2022/11/24 06:19:52;;;;;;;;;;;;;;;;;;4945719;29;19942;-83
2022/11/24 06:22:18;;;;;;;;;;;;;;;;;;4962818;29;19954;-82
2022/11/24 06:24:44;;;;;;;;;;;;;;;;;;4980219;28;20048;-83
2022/11/24 06:27:11;;;;;;;;;;;;;;;;;;4979724;29;19925;-83
2022/11/24 06:29:36;;;;;;;;;;;;;;;;;;4979355;29;19909;-83
2022/11/24 06:32:02;;;;;;;;;;;;;;;;;;4979068;29;19974;-82
2022/11/24 06:34:31;;;;;;;;;;;;;;;;;;4963144;29;19942;-83
2022/11/24 06:36:56;;;;;;;;;;;;;;;;;;4979284;29;19918;-82
2022/11/24 06:42:06;;;;;;;;;;;;;;;;;;5748602;23;19914;-83
2022/11/24 06:44:32;;;;;;;;;;;;;;;;;;5466996;23;19936;-82
2022/11/24 06:47:00;;;;;;;;;;;;;;;;;;4946999;29;19951;-83
2022/11/24 06:49:26;;;;;;;;;;;;;;;;;;4979604;28;20373;-83
2022/11/24 06:51:51;;;;;;;;;;;;;;;;;;4961639;29;19925;-84
2022/11/24 06:54:17;;;;;;;;;;;;;;;;;;4963139;29;19921;-83
2022/11/24 06:56:45;;;;;;;;;;;;;;;;;;4979468;28;19946;-83
2022/11/24 06:59:10;;;;;;;;;;;;;;;;;;4963939;29;19914;-83
2022/11/24 07:01:36;;;;;;;;;;;;;;;;;;4964446;28;19929;-83
2022/11/24 07:04:03;;;;;;;;;;;;;;;;;;4964612;28;19961;-83
2022/11/24 07:06:28;;;;;;;;;;;;;;;;;;4979940;28;19907;-83
2022/11/24 07:08:56;;;;;;;;;;;;;;;;;;4978881;28;19942;-82
2022/11/24 07:11:22;;;;;;;;;;;;;;;;;;4978384;29;19926;-83
2022/11/24 07:13:50;;;;;;;;;;;;;;;;;;4963224;29;19918;-82
2022/11/24 07:16:18;;;;;;;;;;;;;;;;;;4978929;28;19898;-84
2022/11/24 07:18:44;;;;;;;;;;;;;;;;;;4980084;29;19973;-83
2022/11/24 07:21:10;;;;;;;;;;;;;;;;;;5017449;23;19926;-83
2022/11/24 07:23:38;;;;;;;;;;;;;;;;;;4980055;28;20366;-82
2022/11/24 07:26:03;;;;;;;;;;;;;;;;;;4980044;29;19910;-83
2022/11/24 07:28:29;;;;;;;;;;;;;;;;;;4979578;28;19922;-83
2022/11/24 07:30:57;;;;;;;;;;;;;;;;;;4978145;28;19935;-82
2022/11/24 07:33:24;;;;;;;;;;;;;;;;;;4963642;29;19919;-81
2022/11/24 07:35:50;;;;;;;;;;;;;;;;;;4977562;29;19921;-83
2022/11/24 07:38:16;;;;;;;;;;;;;;;;;;5637616;23;19929;-81
2022/11/24 07:40:44;;;;;;;;;;;;;;;;;;4949169;28;19910;-84
2022/11/24 07:43:10;;;;;;;;;;;;;;;;;;4963508;29;19914;-82
2022/11/24 07:45:36;;;;;;;;;;;;;;;;;;4978630;29;19898;-83
2022/11/24 07:48:01;;;;;;;;;;;;;;;;;;4963632;29;19926;-83
2022/11/24 07:50:30;;;;;;;;;;;;;;;;;;4947737;29;19917;-82
2022/11/24 07:52:56;;;;;;;;;;;;;;;;;;4962884;29;20002;-82
2022/11/24 07:55:22;;;;;;;;;;;;;;;;;;4978936;28;19993;-82
2022/11/24 07:57:47;;;;;;;;;;;;;;;;;;4962260;29;20107;-82
2022/11/24 08:00:13;;;;;;;;;;;;;;;;;;4960985;29;19922;-83
2022/11/24 08:02:38;;;;;;;;;;;;;;;;;;4978601;29;19902;-81
2022/11/24 08:05:04;;;;;;;;;;;;;;;;;;4976065;23;20306;-80
2022/11/24 08:07:29;;;;;;;;;;;;;;;;;;4957605;29;20377;-79
2022/11/24 08:09:55;;;;;;;;;;;;;;;;;;4956054;29;19991;-78
2022/11/24 08:12:20;;;;;;;;;;;;;;;;;;4923945;29;20367;-78
2022/11/24 08:14:46;;;;;;;;;;;;;;;;;;4940212;29;20462;-78
2022/11/24 08:17:11;;;;;;;;;;;;;;;;;;4939691;29;19918;-78
2022/11/24 08:19:36;;;;;;;;;;;;;;;;;;4957095;29;20389;-78
2022/11/24 08:22:02;;;;;;;;;;;;;;;;;;4926300;29;19915;-78
2022/11/24 08:24:27;;;;;;;;;;;;;;;;;;4960085;29;20385;-80
2022/11/24 08:26:52;;;;;;;;;;;;;;;;;;4961020;29;19918;-79
2022/11/24 08:29:18;;;;;;;;;;;;;;;;;;4946171;29;19982;-79
2022/11/24 08:31:43;;;;;;;;;;;;;;;;;;4961640;29;19914;-80
2022/11/24 08:34:09;;;;;;;;;;;;;;;;;;4960672;29;19914;-80
2022/11/24 08:36:34;;;;;;;;;;;;;;;;;;4964072;29;20293;-79
2022/11/24 08:38:59;;;;;;;;;;;;;;;;;;4964463;29;20388;-80
2022/11/24 08:41:25;;;;;;;;;;;;;;;;;;4965139;28;20003;-81
2022/11/24 08:43:51;;;;;;;;;;;;;;;;;;4962033;29;20001;-81
2022/11/24 08:46:16;;;;;;;;;;;;;;;;;;4966771;29;19919;-79
2022/11/24 08:48:41;;;;;;;;;;;;;;;;;;4959798;29;19914;-79
2022/11/24 08:51:07;;;;;;;;;;;;;;;;;;4943333;29;20404;-79
2022/11/24 08:53:32;;;;;;;;;;;;;;;;;;4958653;29;19962;-79
2022/11/24 08:55:58;;;;;;;;;;;;;;;;;;4958732;29;20271;-78
2022/11/24 08:58:23;;;;;;;;;;;;;;;;;;4960164;29;19920;-77
2022/11/24 09:00:48;;;;;;;;;;;;;;;;;;4960725;29;20409;-79
2022/11/24 09:03:14;;;;;;;;;;;;;;;;;;4960562;29;19922;-79
2022/11/24 09:05:39;;;;;;;;;;;;;;;;;;4959153;29;19918;-78
2022/11/24 09:08:05;;;;;;;;;;;;;;;;;;4959230;29;20351;-79
2022/11/24 09:10:30;;;;;;;;;;;;;;;;;;4960120;29;19921;-78
2022/11/24 09:12:55;;;;;;;;;;;;;;;;;;4960935;29;19977;-78
2022/11/24 09:15:21;;;;;;;;;;;;;;;;;;4960626;29;20390;-79
2022/11/24 09:17:47;;;;;;;;;;;;;;;;;;4960883;28;19922;-80
2022/11/24 09:20:12;;;;;;;;;;;;;;;;;;4962278;29;19915;-78
2022/11/24 09:22:39;;;;;;;;;;;;;;;;;;4961652;29;19914;-77
2022/11/24 09:25:05;;;;;;;;;;;;;;;;;;4965344;28;20425;-79
2022/11/24 09:27:30;;;;;;;;;;;;;;;;;;4947959;29;20009;-79
2022/11/24 09:29:56;;;;;;;;;;;;;;;;;;4964411;29;19920;-79
2022/11/24 09:32:21;;;;;;;;;;;;;;;;;;4957409;28;19930;-78
2022/11/24 09:34:47;;;;;;;;;;;;;;;;;;4958447;29;19989;-80
2022/11/24 09:37:12;;;;;;;;;;;;;;;;;;4958925;29;19919;-79
2022/11/24 09:39:37;;;;;;;;;;;;;;;;;;4963546;29;19922;-79
2022/11/24 09:42:03;;;;;;;;;;;;;;;;;;4965087;29;19925;-79
2022/11/24 09:44:28;;;;;;;;;;;;;;;;;;4962048;28;19919;-79
2022/11/24 09:46:54;;;;;;;;;;;;;;;;;;4958104;29;20338;-79
2022/11/24 09:49:19;;;;;;;;;;;;;;;;;;4958126;29;19923;-79
2022/11/24 09:51:44;;;;;;;;;;;;;;;;;;4957991;29;20402;-79
2022/11/24 09:54:10;;;;;;;;;;;;;;;;;;4958907;29;19938;-79
2022/11/24 09:56:35;;;;;;;;;;;;;;;;;;4944769;29;20313;-78
2022/11/24 09:59:01;;;;;;;;;;;;;;;;;;4957712;29;19921;-79
2022/11/24 10:01:27;;;;;;;;;;;;;;;;;;4958247;28;19949;-78
2022/11/24 10:03:52;;;;;;;;;;;;;;;;;;4958983;29;20277;-78
2022/11/24 10:06:17;;;;;;;;;;;;;;;;;;4959682;29;19923;-79
2022/11/24 10:08:43;;;;;;;;;;;;;;;;;;4959155;29;19922;-79
2022/11/24 10:11:08;;;;;;;;;;;;;;;;;;4960241;29;20093;-79
2022/11/24 10:13:34;;;;;;;;;;;;;;;;;;4960772;29;20009;-79
2022/11/24 10:15:59;;;;;;;;;;;;;;;;;;4943183;29;19995;-78
2022/11/24 10:18:24;;;;;;;;;;;;;;;;;;4958774;29;19926;-79
2022/11/24 10:20:50;;;;;;;;;;;;;;;;;;4960684;29;19921;-78
2022/11/24 10:23:15;;;;;;;;;;;;;;;;;;4958469;29;20375;-79
2022/11/24 10:25:41;;;;;;;;;;;;;;;;;;4959941;29;19942;-79
2022/11/24 10:28:06;;;;;;;;;;;;;;;;;;4959921;29;19918;-78
2022/11/24 10:30:31;;;;;;;;;;;;;;;;;;4962485;29;20294;-79
2022/11/24 10:32:57;;;;;;;;;;;;;;;;;;4961921;29;19918;-78
2022/11/24 10:35:23;;;;;;;;;;;;;;;;;;4957449;29;20367;-78
2022/11/24 10:37:49;;;;;;;;;;;;;;;;;;4957355;29;20424;-78
2022/11/24 10:40:14;;;;;;;;;;;;;;;;;;4957219;29;19914;-78
2022/11/24 10:42:39;;;;;;;;;;;;;;;;;;4958331;29;20008;-78
2022/11/24 10:45:05;;;;;;;;;;;;;;;;;;4939889;29;19921;-78
2022/11/24 10:47:30;;;;;;;;;;;;;;;;;;4956366;29;19922;-78
2022/11/24 10:49:56;;;;;;;;;;;;;;;;;;4957686;29;19914;-78
2022/11/24 10:52:21;;;;;;;;;;;;;;;;;;4957183;29;19918;-78
2022/11/24 10:54:46;;;;;;;;;;;;;;;;;;4957229;29;19997;-78
2022/11/24 10:57:12;;;;;;;;;;;;;;;;;;4956241;29;20334;-78
2022/11/24 10:59:38;;;;;;;;;;;;;;;;;;4957352;29;20008;-78
2022/11/24 11:02:03;;;;;;;;;;;;;;;;;;4958085;28;20441;-78
2022/11/24 11:04:28;;;;;;;;;;;;;;;;;;4956008;29;20397;-78
2022/11/24 11:06:54;;;;;;;;;;;;;;;;;;4957200;29;19914;-79
2022/11/24 11:09:19;;;;;;;;;;;;;;;;;;4957199;29;19910;-79
2022/11/24 11:11:47;;;;;;;;;;;;;;;;;;4957723;28;20370;-78
2022/11/24 11:14:13;;;;;;;;;;;;;;;;;;4958880;29;20442;-79
2022/11/24 11:16:38;;;;;;;;;;;;;;;;;;4958325;29;19918;-78
2022/11/24 11:19:04;;;;;;;;;;;;;;;;;;4957791;29;19922;-79
2022/11/24 11:21:29;;;;;;;;;;;;;;;;;;4956590;29;19915;-79
2022/11/24 11:23:54;;;;;;;;;;;;;;;;;;4957185;29;20017;-79
2022/11/24 11:26:20;;;;;;;;;;;;;;;;;;4957719;29;19911;-79
2022/11/24 11:28:45;;;;;;;;;;;;;;;;;;4958922;29;19922;-79
2022/11/24 11:31:11;;;;;;;;;;;;;;;;;;4957423;29;19914;-79
2022/11/24 11:33:36;;;;;;;;;;;;;;;;;;4958875;29;19941;-78
2022/11/24 11:36:01;;;;;;;;;;;;;;;;;;4964312;29;19993;-79
2022/11/24 11:38:30;;;;;;;;;;;;;;;;;;4962348;29;19928;-78
2022/11/24 11:40:55;;;;;;;;;;;;;;;;;;4941614;29;19915;-78
2022/11/24 11:43:21;;;;;;;;;;;;;;;;;;4956935;29;20267;-79
2022/11/24 11:45:46;;;;;;;;;;;;;;;;;;4956383;28;19957;-78
2022/11/24 11:48:13;;;;;;;;;;;;;;;;;;4940074;29;20298;-79
2022/11/24 11:50:39;;;;;;;;;;;;;;;;;;4956740;29;19929;-79
2022/11/24 11:53:05;;;;;;;;;;;;;;;;;;4956122;29;19918;-78
2022/11/24 11:55:30;;;;;;;;;;;;;;;;;;4955109;28;19911;-79
2022/11/24 11:57:56;;;;;;;;;;;;;;;;;;4956559;29;20498;-78
2022/11/24 12:00:21;;;;;;;;;;;;;;;;;;4955681;29;20286;-79
2022/11/24 12:02:47;;;;;;;;;;;;;;;;;;4958340;29;19926;-78
2022/11/24 12:05:12;;;;;;;;;;;;;;;;;;4958187;28;20061;-79
2022/11/24 12:07:37;;;;;;;;;;;;;;;;;;4957744;29;19914;-79
2022/11/24 12:10:03;;;;;;;;;;;;;;;;;;4956751;29;19910;-78
2022/11/24 12:12:28;;;;;;;;;;;;;;;;;;4956168;29;19914;-79
2022/11/24 12:14:54;;;;;;;;;;;;;;;;;;4960274;29;20356;-78
2022/11/24 12:17:19;;;;;;;;;;;;;;;;;;4960725;29;19953;-79
2022/11/24 12:19:45;;;;;;;;;;;;;;;;;;4960425;29;20339;-79
2022/11/24 12:22:10;;;;;;;;;;;;;;;;;;4961827;29;19910;-79
2022/11/24 12:24:36;;;;;;;;;;;;;;;;;;4960529;29;20366;-79
2022/11/24 12:27:01;;;;;;;;;;;;;;;;;;4957961;29;19950;-79
2022/11/24 12:29:26;;;;;;;;;;;;;;;;;;4959205;29;19925;-79
2022/11/24 12:31:52;;;;;;;;;;;;;;;;;;4962440;29;19921;-79
2022/11/24 12:34:17;;;;;;;;;;;;;;;;;;4960906;29;19915;-79
2022/11/24 12:36:42;;;;;;;;;;;;;;;;;;4940808;29;19964;-79
2022/11/24 12:39:10;;;;;;;;;;;;;;;;;;4957737;29;19921;-78
2022/11/24 12:41:36;;;;;;;;;;;;;;;;;;4957199;29;19934;-78
2022/11/24 12:44:01;;;;;;;;;;;;;;;;;;4941725;29;19911;-79
2022/11/24 12:46:27;;;;;;;;;;;;;;;;;;4942322;29;19918;-79
2022/11/24 12:48:52;;;;;;;;;;;;;;;;;;4958507;29;19915;-80
2022/11/24 12:51:18;;;;;;;;;;;;;;;;;;4954130;29;19915;-79
2022/11/24 12:53:43;;;;;;;;;;;;;;;;;;4954192;29;19926;-79
2022/11/24 12:56:08;;;;;;;;;;;;;;;;;;4921021;29;20001;-80
2022/11/24 12:58:34;;;;;;;;;;;;;;;;;;4952850;29;20406;-79
2022/11/24 13:00:59;;;;;;;;;;;;;;;;;;4954047;29;19914;-80
2022/11/24 13:03:24;;;;;;;;;;;;;;;;;;4954180;29;20442;-79
2022/11/24 13:05:50;;;;;;;;;;;;;;;;;;4953586;29;19919;-80
2022/11/24 13:08:15;;;;;;;;;;;;;;;;;;4955668;28;20029;-80
2022/11/24 13:10:41;;;;;;;;;;;;;;;;;;4957907;29;19950;-81
2022/11/24 13:13:06;;;;;;;;;;;;;;;;;;4957321;29;20397;-80
2022/11/24 13:15:34;;;;;;;;;;;;;;;;;;4957034;29;20431;-78
2022/11/24 13:18:00;;;;;;;;;;;;;;;;;;4957440;29;19919;-80
2022/11/24 13:20:25;;;;;;;;;;;;;;;;;;4957411;29;20009;-80
2022/11/24 13:22:51;;;;;;;;;;;;;;;;;;4956090;29;19970;-80
2022/11/24 13:25:17;;;;;;;;;;;;;;;;;;4957154;28;19918;-80
2022/11/24 13:27:42;;;;;;;;;;;;;;;;;;4940216;29;19933;-80
2022/11/24 13:30:08;;;;;;;;;;;;;;;;;;4956113;29;19964;-80
2022/11/24 13:32:33;;;;;;;;;;;;;;;;;;4957098;29;20374;-82
2022/11/24 13:34:58;;;;;;;;;;;;;;;;;;4939703;29;19950;-81
2022/11/24 13:37:24;;;;;;;;;;;;;;;;;;4955675;29;20298;-80
2022/11/24 13:39:50;;;;;;;;;;;;;;;;;;4955662;29;19915;-80
2022/11/24 13:42:15;;;;;;;;;;;;;;;;;;4957102;29;19962;-82
2022/11/24 13:44:40;;;;;;;;;;;;;;;;;;4958312;28;20358;-79
2022/11/24 13:47:06;;;;;;;;;;;;;;;;;;4957170;28;20063;-82
2022/11/24 13:49:31;;;;;;;;;;;;;;;;;;4943216;29;20243;-79
2022/11/24 13:51:57;;;;;;;;;;;;;;;;;;4968582;29;19917;-80
2022/11/24 13:54:24;;;;;;;;;;;;;;;;;;4968329;29;19982;-81
2022/11/24 13:56:50;;;;;;;;;;;;;;;;;;4958256;29;20343;-80
2022/11/24 13:59:15;;;;;;;;;;;;;;;;;;4956103;29;19914;-81
2022/11/24 14:01:43;;;;;;;;;;;;;;;;;;4955581;29;19918;-81
2022/11/24 14:04:08;;;;;;;;;;;;;;;;;;4956495;28;19915;-79
2022/11/24 14:06:34;;;;;;;;;;;;;;;;;;4956875;29;20300;-81
2022/11/24 14:08:59;;;;;;;;;;;;;;;;;;4956568;29;19937;-81
2022/11/24 14:11:25;;;;;;;;;;;;;;;;;;4955335;29;19917;-82
2022/11/24 14:13:51;;;;;;;;;;;;;;;;;;4939599;29;19915;-81
2022/11/24 14:16:16;;;;;;;;;;;;;;;;;;4956440;29;19918;-81
2022/11/24 14:18:42;;;;;;;;;;;;;;;;;;4956644;28;19914;-81
2022/11/24 14:21:07;;;;;;;;;;;;;;;;;;4956224;29;19926;-78
2022/11/24 14:23:32;;;;;;;;;;;;;;;;;;4956365;29;20080;-81
2022/11/24 14:25:58;;;;;;;;;;;;;;;;;;4956735;29;19969;-80
2022/11/24 14:28:23;;;;;;;;;;;;;;;;;;4957015;29;19950;-79
2022/11/24 14:30:49;;;;;;;;;;;;;;;;;;4955533;29;19914;-79
2022/11/24 14:33:17;;;;;;;;;;;;;;;;;;4956545;29;19914;-78
2022/11/24 14:35:42;;;;;;;;;;;;;;;;;;4955658;29;19915;-79
2022/11/24 14:38:08;;;;;;;;;;;;;;;;;;4939875;29;19919;-78
2022/11/24 14:40:33;;;;;;;;;;;;;;;;;;4955482;29;20405;-78
2022/11/24 14:42:58;;;;;;;;;;;;;;;;;;4954690;29;19917;-79
2022/11/24 14:45:24;;;;;;;;;;;;;;;;;;4956424;28;19926;-79
2022/11/24 14:47:49;;;;;;;;;;;;;;;;;;4956414;29;19914;-79
2022/11/24 14:50:15;;;;;;;;;;;;;;;;;;4956066;29;19925;-79
2022/11/24 14:52:40;;;;;;;;;;;;;;;;;;4955838;29;20005;-80
2022/11/24 14:55:05;;;;;;;;;;;;;;;;;;4955785;29;19914;-81
2022/11/24 14:57:31;;;;;;;;;;;;;;;;;;4959797;29;19918;-80
2022/11/24 14:59:56;;;;;;;;;;;;;;;;;;4965945;29;19974;-80
2022/11/24 15:02:22;;;;;;;;;;;;;;;;;;4961353;29;20298;-81
2022/11/24 15:04:47;;;;;;;;;;;;;;;;;;4956317;29;19918;-81
2022/11/24 15:07:12;;;;;;;;;;;;;;;;;;4954864;29;19950;-80
2022/11/24 15:09:38;;;;;;;;;;;;;;;;;;4954544;29;20379;-79
2022/11/24 15:12:04;;;;;;;;;;;;;;;;;;4954288;29;19961;-79
2022/11/24 15:14:29;;;;;;;;;;;;;;;;;;4955129;29;19914;-79
2022/11/24 15:16:54;;;;;;;;;;;;;;;;;;4955300;29;19930;-79
2022/11/24 15:19:20;;;;;;;;;;;;;;;;;;4955196;29;20033;-78
2022/11/24 15:21:45;;;;;;;;;;;;;;;;;;4955217;29;20302;-80
2022/11/24 15:24:11;;;;;;;;;;;;;;;;;;4939196;29;19982;-80
2022/11/24 15:26:36;;;;;;;;;;;;;;;;;;4955574;28;19965;-80
2022/11/24 15:29:02;;;;;;;;;;;;;;;;;;4956164;28;20396;-81
2022/11/24 15:31:27;;;;;;;;;;;;;;;;;;4959400;28;19925;-80
2022/11/24 15:33:53;;;;;;;;;;;;;;;;;;4922757;29;19914;-80
2022/11/24 15:36:19;;;;;;;;;;;;;;;;;;4955361;28;20009;-80
2022/11/24 15:38:45;;;;;;;;;;;;;;;;;;4954829;29;19914;-79
2022/11/24 15:41:10;;;;;;;;;;;;;;;;;;4955651;28;19914;-78
2022/11/24 15:43:35;;;;;;;;;;;;;;;;;;4955459;29;19914;-79
2022/11/24 15:46:01;;;;;;;;;;;;;;;;;;4955510;29;20394;-81
2022/11/24 15:48:26;;;;;;;;;;;;;;;;;;4955633;29;19937;-82
2022/11/24 15:50:55;;;;;;;;;;;;;;;;;;4938309;29;20005;-82
2022/11/24 15:53:26;;;;;;;;;;;;;;;;;;4939459;29;19918;-79
2022/11/24 15:55:52;;;;;;;;;;;;;;;;;;4957821;29;19915;-82
2022/11/24 15:58:17;;;;;;;;;;;;;;;;;;4960037;29;19921;-81
2022/11/24 16:00:43;;;;;;;;;;;;;;;;;;4956356;29;20382;-82
2022/11/24 16:03:08;;;;;;;;;;;;;;;;;;4962841;29;19971;-83
2022/11/24 16:05:33;;;;;;;;;;;;;;;;;;4967822;29;19925;-82
2022/11/24 16:07:59;;;;;;;;;;;;;;;;;;4963522;29;20009;-82
2022/11/24 16:10:24;;;;;;;;;;;;;;;;;;4938560;29;19915;-82
2022/11/24 16:12:49;;;;;;;;;;;;;;;;;;4954845;29;19970;-82
2022/11/24 16:15:15;;;;;;;;;;;;;;;;;;4953663;29;19921;-81
2022/11/24 16:17:40;;;;;;;;;;;;;;;;;;4953757;29;19922;-82
2022/11/24 16:20:06;;;;;;;;;;;;;;;;;;4954879;29;20382;-81
2022/11/24 16:22:31;;;;;;;;;;;;;;;;;;4954490;28;19915;-83
2022/11/24 16:24:57;;;;;;;;;;;;;;;;;;4953440;29;20339;-82
2022/11/24 16:27:22;;;;;;;;;;;;;;;;;;4954550;29;19914;-82
2022/11/24 16:29:48;;;;;;;;;;;;;;;;;;4954789;29;19923;-84
2022/11/24 16:32:13;;;;;;;;;;;;;;;;;;4955812;28;19942;-82
2022/11/24 16:34:39;;;;;;;;;;;;;;;;;;4965235;29;19922;-83
2022/11/24 16:37:04;;;;;;;;;;;;;;;;;;4955110;28;19925;-81
2022/11/24 16:39:35;;;;;;;;;;;;;;;;;;4955249;28;19914;-82
2022/11/24 16:42:00;;;;;;;;;;;;;;;;;;4937297;29;20453;-81
2022/11/24 16:44:25;;;;;;;;;;;;;;;;;;4956899;29;19915;-82
2022/11/24 16:46:51;;;;;;;;;;;;;;;;;;4941861;29;20020;-81
2022/11/24 16:49:16;;;;;;;;;;;;;;;;;;4957908;29;19926;-83
2022/11/24 16:51:42;;;;;;;;;;;;;;;;;;4957818;29;20373;-81
2022/11/24 16:54:07;;;;;;;;;;;;;;;;;;4956782;29;19918;-83